sensor_id;sensor_type;location;lat;lon;timestamp;P1;durP1;ratioP1;P2;durP2;ratioP2
41061;SDS011;26812;42.662;23.352;2023-07-13T00:00:40;5.28;;;3.40;;
41061;SDS011;26812;42.662;23.352;2023-07-13T00:03:07;5.22;;;3.60;;
41061;SDS011;26812;42.662;23.352;2023-07-13T00:05:33;5.35;;;3.92;;
41061;SDS011;26812;42.662;23.352;2023-07-13T00:08:04;5.35;;;3.42;;
41061;SDS011;26812;42.662;23.352;2023-07-13T00:10:30;4.47;;;3.40;;
41061;SDS011;26812;42.662;23.352;2023-07-13T00:12:56;4.15;;;3.10;;
41061;SDS011;26812;42.662;23.352;2023-07-13T00:15:23;6.15;;;3.25;;
41061;SDS011;26812;42.662;23.352;2023-07-13T00:17:51;3.20;;;2.85;;
41061;SDS011;26812;42.662;23.352;2023-07-13T00:20:17;6.43;;;4.30;;
41061;SDS011;26812;42.662;23.352;2023-07-13T00:22:49;5.47;;;3.78;;
41061;SDS011;26812;42.662;23.352;2023-07-13T00:25:16;6.75;;;3.20;;
41061;SDS011;26812;42.662;23.352;2023-07-13T00:27:42;4.32;;;3.45;;
41061;SDS011;26812;42.662;23.352;2023-07-13T00:30:09;5.85;;;4.32;;
41061;SDS011;26812;42.662;23.352;2023-07-13T00:32:35;6.28;;;3.95;;
41061;SDS011;26812;42.662;23.352;2023-07-13T00:35:00;5.97;;;4.45;;
41061;SDS011;26812;42.662;23.352;2023-07-13T00:37:28;5.70;;;3.72;;
41061;SDS011;26812;42.662;23.352;2023-07-13T00:39:54;5.57;;;3.45;;
41061;SDS011;26812;42.662;23.352;2023-07-13T00:42:19;9.02;;;3.67;;
41061;SDS011;26812;42.662;23.352;2023-07-13T00:45:04;7.07;;;3.63;;
41061;SDS011;26812;42.662;23.352;2023-07-13T00:47:32;7.63;;;3.47;;
41061;SDS011;26812;42.662;23.352;2023-07-13T00:49:57;5.75;;;3.40;;
41061;SDS011;26812;42.662;23.352;2023-07-13T00:52:24;5.53;;;3.50;;
41061;SDS011;26812;42.662;23.352;2023-07-13T00:54:49;5.60;;;3.72;;
41061;SDS011;26812;42.662;23.352;2023-07-13T00:57:16;4.85;;;3.55;;
41061;SDS011;26812;42.662;23.352;2023-07-13T00:59:46;3.22;;;2.92;;
41061;SDS011;26812;42.662;23.352;2023-07-13T01:02:15;5.93;;;3.70;;
41061;SDS011;26812;42.662;23.352;2023-07-13T01:04:41;5.28;;;3.38;;
41061;SDS011;26812;42.662;23.352;2023-07-13T01:07:09;5.38;;;3.92;;
41061;SDS011;26812;42.662;23.352;2023-07-13T01:09:36;4.72;;;3.58;;
41061;SDS011;26812;42.662;23.352;2023-07-13T01:12:01;6.60;;;3.42;;
41061;SDS011;26812;42.662;23.352;2023-07-13T01:14:28;3.67;;;3.25;;
41061;SDS011;26812;42.662;23.352;2023-07-13T01:16:53;4.47;;;3.88;;
41061;SDS011;26812;42.662;23.352;2023-07-13T01:22:05;5.57;;;3.58;;
41061;SDS011;26812;42.662;23.352;2023-07-13T01:24:36;4.10;;;3.40;;
41061;SDS011;26812;42.662;23.352;2023-07-13T01:27:03;3.67;;;3.25;;
41061;SDS011;26812;42.662;23.352;2023-07-13T01:29:31;5.65;;;3.80;;
41061;SDS011;26812;42.662;23.352;2023-07-13T01:31:58;4.65;;;3.42;;
41061;SDS011;26812;42.662;23.352;2023-07-13T01:34:25;5.30;;;3.65;;
41061;SDS011;26812;42.662;23.352;2023-07-13T01:36:51;4.40;;;3.72;;
41061;SDS011;26812;42.662;23.352;2023-07-13T01:39:18;5.20;;;3.70;;
41061;SDS011;26812;42.662;23.352;2023-07-13T01:41:46;3.70;;;2.95;;
41061;SDS011;26812;42.662;23.352;2023-07-13T01:44:12;9.55;;;4.28;;
41061;SDS011;26812;42.662;23.352;2023-07-13T01:46:37;4.63;;;3.30;;
41061;SDS011;26812;42.662;23.352;2023-07-13T01:49:03;6.55;;;4.00;;
41061;SDS011;26812;42.662;23.352;2023-07-13T01:51:28;5.60;;;3.50;;
41061;SDS011;26812;42.662;23.352;2023-07-13T01:53:53;6.05;;;3.80;;
41061;SDS011;26812;42.662;23.352;2023-07-13T01:56:19;6.10;;;4.22;;
41061;SDS011;26812;42.662;23.352;2023-07-13T01:58:45;5.30;;;3.63;;
41061;SDS011;26812;42.662;23.352;2023-07-13T02:01:10;6.00;;;3.35;;
41061;SDS011;26812;42.662;23.352;2023-07-13T02:03:36;5.15;;;3.63;;
41061;SDS011;26812;42.662;23.352;2023-07-13T02:06:01;4.03;;;3.55;;
41061;SDS011;26812;42.662;23.352;2023-07-13T02:08:27;4.97;;;3.80;;
41061;SDS011;26812;42.662;23.352;2023-07-13T02:10:52;4.70;;;3.92;;
41061;SDS011;26812;42.662;23.352;2023-07-13T02:13:18;6.93;;;3.67;;
41061;SDS011;26812;42.662;23.352;2023-07-13T02:15:43;6.82;;;3.95;;
41061;SDS011;26812;42.662;23.352;2023-07-13T02:18:08;4.68;;;3.72;;
41061;SDS011;26812;42.662;23.352;2023-07-13T02:20:40;6.30;;;4.00;;
41061;SDS011;26812;42.662;23.352;2023-07-13T02:23:06;4.82;;;3.75;;
41061;SDS011;26812;42.662;23.352;2023-07-13T02:25:31;5.82;;;3.50;;
41061;SDS011;26812;42.662;23.352;2023-07-13T02:27:56;5.82;;;3.72;;
41061;SDS011;26812;42.662;23.352;2023-07-13T02:30:22;5.18;;;3.72;;
41061;SDS011;26812;42.662;23.352;2023-07-13T02:32:49;8.57;;;5.20;;
41061;SDS011;26812;42.662;23.352;2023-07-13T02:35:15;6.07;;;4.22;;
41061;SDS011;26812;42.662;23.352;2023-07-13T02:37:40;4.53;;;3.67;;
41061;SDS011;26812;42.662;23.352;2023-07-13T02:40:06;5.30;;;4.05;;
41061;SDS011;26812;42.662;23.352;2023-07-13T02:42:33;8.00;;;4.15;;
41061;SDS011;26812;42.662;23.352;2023-07-13T02:44:59;6.53;;;4.13;;
41061;SDS011;26812;42.662;23.352;2023-07-13T02:47:25;5.93;;;4.35;;
41061;SDS011;26812;42.662;23.352;2023-07-13T02:49:51;4.68;;;3.42;;
41061;SDS011;26812;42.662;23.352;2023-07-13T02:52:17;5.63;;;3.92;;
41061;SDS011;26812;42.662;23.352;2023-07-13T02:54:42;6.45;;;4.18;;
41061;SDS011;26812;42.662;23.352;2023-07-13T02:57:07;5.82;;;4.15;;
41061;SDS011;26812;42.662;23.352;2023-07-13T02:59:33;5.53;;;3.50;;
41061;SDS011;26812;42.662;23.352;2023-07-13T03:01:58;4.68;;;3.50;;
41061;SDS011;26812;42.662;23.352;2023-07-13T03:04:25;4.35;;;3.40;;
41061;SDS011;26812;42.662;23.352;2023-07-13T03:06:50;6.35;;;3.40;;
41061;SDS011;26812;42.662;23.352;2023-07-13T03:09:16;6.43;;;4.05;;
41061;SDS011;26812;42.662;23.352;2023-07-13T03:11:41;5.00;;;4.47;;
41061;SDS011;26812;42.662;23.352;2023-07-13T03:14:07;5.68;;;4.05;;
41061;SDS011;26812;42.662;23.352;2023-07-13T03:16:33;7.90;;;3.60;;
41061;SDS011;26812;42.662;23.352;2023-07-13T03:18:58;4.80;;;3.50;;
41061;SDS011;26812;42.662;23.352;2023-07-13T03:21:24;5.32;;;4.03;;
41061;SDS011;26812;42.662;23.352;2023-07-13T03:23:49;5.40;;;4.25;;
41061;SDS011;26812;42.662;23.352;2023-07-13T03:26:16;4.75;;;4.25;;
41061;SDS011;26812;42.662;23.352;2023-07-13T03:28:43;5.40;;;4.15;;
41061;SDS011;26812;42.662;23.352;2023-07-13T03:31:10;5.82;;;5.00;;
41061;SDS011;26812;42.662;23.352;2023-07-13T03:33:41;8.02;;;5.07;;
41061;SDS011;26812;42.662;23.352;2023-07-13T03:36:07;5.53;;;4.40;;
41061;SDS011;26812;42.662;23.352;2023-07-13T03:38:36;6.10;;;4.05;;
41061;SDS011;26812;42.662;23.352;2023-07-13T03:41:01;6.05;;;4.43;;
41061;SDS011;26812;42.662;23.352;2023-07-13T03:43:27;5.22;;;4.18;;
41061;SDS011;26812;42.662;23.352;2023-07-13T03:45:52;4.70;;;3.65;;
41061;SDS011;26812;42.662;23.352;2023-07-13T03:48:18;6.18;;;4.63;;
41061;SDS011;26812;42.662;23.352;2023-07-13T03:50:43;5.78;;;4.72;;
41061;SDS011;26812;42.662;23.352;2023-07-13T03:53:09;7.20;;;4.60;;
41061;SDS011;26812;42.662;23.352;2023-07-13T03:55:34;4.75;;;4.25;;
41061;SDS011;26812;42.662;23.352;2023-07-13T03:58:24;9.23;;;4.80;;
41061;SDS011;26812;42.662;23.352;2023-07-13T04:00:51;5.03;;;4.03;;
41061;SDS011;26812;42.662;23.352;2023-07-13T04:03:16;7.70;;;4.22;;
41061;SDS011;26812;42.662;23.352;2023-07-13T04:05:42;4.97;;;4.47;;
41061;SDS011;26812;42.662;23.352;2023-07-13T04:08:07;5.22;;;4.00;;
41061;SDS011;26812;42.662;23.352;2023-07-13T04:10:34;6.30;;;4.97;;
41061;SDS011;26812;42.662;23.352;2023-07-13T04:12:59;8.27;;;5.10;;
41061;SDS011;26812;42.662;23.352;2023-07-13T04:15:25;6.53;;;4.65;;
41061;SDS011;26812;42.662;23.352;2023-07-13T04:17:52;8.40;;;4.97;;
41061;SDS011;26812;42.662;23.352;2023-07-13T04:20:17;8.48;;;5.25;;
41061;SDS011;26812;42.662;23.352;2023-07-13T04:22:44;6.18;;;5.22;;
41061;SDS011;26812;42.662;23.352;2023-07-13T04:25:10;7.93;;;5.72;;
41061;SDS011;26812;42.662;23.352;2023-07-13T04:27:35;10.05;;;4.63;;
41061;SDS011;26812;42.662;23.352;2023-07-13T04:30:00;7.35;;;4.93;;
41061;SDS011;26812;42.662;23.352;2023-07-13T04:32:26;6.25;;;5.18;;
41061;SDS011;26812;42.662;23.352;2023-07-13T04:34:51;7.07;;;5.03;;
41061;SDS011;26812;42.662;23.352;2023-07-13T04:37:18;7.00;;;5.35;;
41061;SDS011;26812;42.662;23.352;2023-07-13T04:39:43;6.13;;;5.50;;
41061;SDS011;26812;42.662;23.352;2023-07-13T04:42:09;8.93;;;5.15;;
41061;SDS011;26812;42.662;23.352;2023-07-13T04:44:34;7.00;;;5.28;;
41061;SDS011;26812;42.662;23.352;2023-07-13T04:46:59;5.72;;;5.15;;
41061;SDS011;26812;42.662;23.352;2023-07-13T04:49:25;10.95;;;5.90;;
41061;SDS011;26812;42.662;23.352;2023-07-13T04:51:50;7.03;;;5.60;;
41061;SDS011;26812;42.662;23.352;2023-07-13T04:54:15;9.13;;;5.78;;
41061;SDS011;26812;42.662;23.352;2023-07-13T04:56:41;8.82;;;5.90;;
41061;SDS011;26812;42.662;23.352;2023-07-13T04:59:06;6.22;;;5.55;;
41061;SDS011;26812;42.662;23.352;2023-07-13T05:01:32;8.27;;;6.10;;
41061;SDS011;26812;42.662;23.352;2023-07-13T05:03:57;11.10;;;5.95;;
41061;SDS011;26812;42.662;23.352;2023-07-13T05:06:24;7.28;;;5.75;;
41061;SDS011;26812;42.662;23.352;2023-07-13T05:08:49;7.75;;;5.57;;
41061;SDS011;26812;42.662;23.352;2023-07-13T05:11:15;6.63;;;5.43;;
41061;SDS011;26812;42.662;23.352;2023-07-13T05:13:40;8.32;;;5.57;;
41061;SDS011;26812;42.662;23.352;2023-07-13T05:16:05;7.95;;;6.40;;
41061;SDS011;26812;42.662;23.352;2023-07-13T05:18:32;9.05;;;5.68;;
41061;SDS011;26812;42.662;23.352;2023-07-13T05:20:59;7.13;;;5.18;;
41061;SDS011;26812;42.662;23.352;2023-07-13T05:23:27;6.82;;;5.60;;
41061;SDS011;26812;42.662;23.352;2023-07-13T05:25:53;8.27;;;5.75;;
41061;SDS011;26812;42.662;23.352;2023-07-13T05:28:18;8.13;;;5.50;;
41061;SDS011;26812;42.662;23.352;2023-07-13T05:30:47;9.35;;;6.30;;
41061;SDS011;26812;42.662;23.352;2023-07-13T05:33:13;8.98;;;6.05;;
41061;SDS011;26812;42.662;23.352;2023-07-13T05:35:38;7.25;;;6.10;;
41061;SDS011;26812;42.662;23.352;2023-07-13T05:38:04;8.65;;;5.80;;
41061;SDS011;26812;42.662;23.352;2023-07-13T05:40:29;8.82;;;6.50;;
41061;SDS011;26812;42.662;23.352;2023-07-13T05:42:54;8.32;;;5.75;;
41061;SDS011;26812;42.662;23.352;2023-07-13T05:45:20;6.07;;;5.32;;
41061;SDS011;26812;42.662;23.352;2023-07-13T05:47:45;6.82;;;5.68;;
41061;SDS011;26812;42.662;23.352;2023-07-13T05:50:11;9.27;;;5.80;;
41061;SDS011;26812;42.662;23.352;2023-07-13T05:52:36;9.30;;;6.00;;
41061;SDS011;26812;42.662;23.352;2023-07-13T05:55:02;7.93;;;5.45;;
41061;SDS011;26812;42.662;23.352;2023-07-13T05:57:28;9.45;;;6.10;;
41061;SDS011;26812;42.662;23.352;2023-07-13T05:59:53;8.18;;;5.78;;
41061;SDS011;26812;42.662;23.352;2023-07-13T06:02:18;8.07;;;5.97;;
41061;SDS011;26812;42.662;23.352;2023-07-13T06:04:44;6.88;;;5.95;;
41061;SDS011;26812;42.662;23.352;2023-07-13T06:07:09;9.48;;;5.68;;
41061;SDS011;26812;42.662;23.352;2023-07-13T06:09:35;9.35;;;5.88;;
41061;SDS011;26812;42.662;23.352;2023-07-13T06:12:00;9.18;;;5.85;;
41061;SDS011;26812;42.662;23.352;2023-07-13T06:14:25;7.35;;;5.45;;
41061;SDS011;26812;42.662;23.352;2023-07-13T06:16:51;7.28;;;5.13;;
41061;SDS011;26812;42.662;23.352;2023-07-13T06:19:16;6.32;;;5.45;;
41061;SDS011;26812;42.662;23.352;2023-07-13T06:21:48;9.85;;;5.85;;
41061;SDS011;26812;42.662;23.352;2023-07-13T06:24:13;6.88;;;4.72;;
41061;SDS011;26812;42.662;23.352;2023-07-13T06:26:39;7.82;;;5.53;;
41061;SDS011;26812;42.662;23.352;2023-07-13T06:29:04;6.85;;;5.05;;
41061;SDS011;26812;42.662;23.352;2023-07-13T06:31:32;7.88;;;5.05;;
41061;SDS011;26812;42.662;23.352;2023-07-13T06:33:57;8.38;;;5.78;;
41061;SDS011;26812;42.662;23.352;2023-07-13T06:36:22;5.38;;;4.32;;
41061;SDS011;26812;42.662;23.352;2023-07-13T06:38:48;7.57;;;5.43;;
41061;SDS011;26812;42.662;23.352;2023-07-13T06:41:13;5.63;;;5.07;;
41061;SDS011;26812;42.662;23.352;2023-07-13T06:43:39;7.43;;;5.22;;
41061;SDS011;26812;42.662;23.352;2023-07-13T06:46:04;6.28;;;4.93;;
41061;SDS011;26812;42.662;23.352;2023-07-13T06:48:30;5.03;;;4.43;;
41061;SDS011;26812;42.662;23.352;2023-07-13T06:50:55;6.97;;;5.70;;
41061;SDS011;26812;42.662;23.352;2023-07-13T06:53:21;6.90;;;5.20;;
41061;SDS011;26812;42.662;23.352;2023-07-13T06:55:47;8.48;;;5.20;;
41061;SDS011;26812;42.662;23.352;2023-07-13T06:58:14;6.32;;;4.68;;
41061;SDS011;26812;42.662;23.352;2023-07-13T07:00:43;7.88;;;4.82;;
41061;SDS011;26812;42.662;23.352;2023-07-13T07:03:09;9.15;;;5.38;;
41061;SDS011;26812;42.662;23.352;2023-07-13T07:05:34;7.63;;;5.05;;
41061;SDS011;26812;42.662;23.352;2023-07-13T07:08:00;5.82;;;4.60;;
41061;SDS011;26812;42.662;23.352;2023-07-13T07:10:25;6.75;;;5.60;;
41061;SDS011;26812;42.662;23.352;2023-07-13T07:12:51;6.75;;;5.15;;
41061;SDS011;26812;42.662;23.352;2023-07-13T07:15:17;7.50;;;5.43;;
41061;SDS011;26812;42.662;23.352;2023-07-13T07:17:43;7.63;;;4.40;;
41061;SDS011;26812;42.662;23.352;2023-07-13T07:20:09;6.82;;;5.07;;
41061;SDS011;26812;42.662;23.352;2023-07-13T07:22:35;8.20;;;5.22;;
41061;SDS011;26812;42.662;23.352;2023-07-13T07:25:00;5.65;;;5.05;;
41061;SDS011;26812;42.662;23.352;2023-07-13T07:27:25;5.90;;;4.85;;
41061;SDS011;26812;42.662;23.352;2023-07-13T07:29:51;10.73;;;5.72;;
41061;SDS011;26812;42.662;23.352;2023-07-13T07:32:17;6.65;;;4.97;;
41061;SDS011;26812;42.662;23.352;2023-07-13T07:34:44;8.55;;;5.60;;
41061;SDS011;26812;42.662;23.352;2023-07-13T07:37:10;8.63;;;5.40;;
41061;SDS011;26812;42.662;23.352;2023-07-13T07:39:36;9.13;;;5.32;;
41061;SDS011;26812;42.662;23.352;2023-07-13T07:42:03;5.70;;;4.60;;
41061;SDS011;26812;42.662;23.352;2023-07-13T07:44:28;6.03;;;4.65;;
41061;SDS011;26812;42.662;23.352;2023-07-13T07:46:53;6.32;;;5.45;;
41061;SDS011;26812;42.662;23.352;2023-07-13T07:49:19;8.88;;;5.57;;
41061;SDS011;26812;42.662;23.352;2023-07-13T07:51:45;7.78;;;5.35;;
41061;SDS011;26812;42.662;23.352;2023-07-13T07:54:10;8.65;;;5.45;;
41061;SDS011;26812;42.662;23.352;2023-07-13T07:56:36;6.15;;;5.38;;
41061;SDS011;26812;42.662;23.352;2023-07-13T07:59:01;5.75;;;5.15;;
41061;SDS011;26812;42.662;23.352;2023-07-13T08:01:27;6.82;;;5.22;;
41061;SDS011;26812;42.662;23.352;2023-07-13T08:03:52;8.13;;;6.13;;
41061;SDS011;26812;42.662;23.352;2023-07-13T08:06:17;11.52;;;6.55;;
41061;SDS011;26812;42.662;23.352;2023-07-13T08:08:44;8.60;;;5.32;;
41061;SDS011;26812;42.662;23.352;2023-07-13T08:11:10;8.95;;;5.82;;
41061;SDS011;26812;42.662;23.352;2023-07-13T08:13:36;7.25;;;5.75;;
41061;SDS011;26812;42.662;23.352;2023-07-13T08:16:03;10.50;;;5.35;;
41061;SDS011;26812;42.662;23.352;2023-07-13T08:18:29;9.45;;;5.60;;
41061;SDS011;26812;42.662;23.352;2023-07-13T08:20:55;10.70;;;5.57;;
41061;SDS011;26812;42.662;23.352;2023-07-13T08:23:21;8.85;;;6.38;;
41061;SDS011;26812;42.662;23.352;2023-07-13T08:25:53;7.70;;;5.60;;
41061;SDS011;26812;42.662;23.352;2023-07-13T08:28:23;9.25;;;5.18;;
41061;SDS011;26812;42.662;23.352;2023-07-13T08:30:48;6.65;;;4.60;;
41061;SDS011;26812;42.662;23.352;2023-07-13T08:33:17;9.05;;;5.20;;
41061;SDS011;26812;42.662;23.352;2023-07-13T08:35:47;5.97;;;5.43;;
41061;SDS011;26812;42.662;23.352;2023-07-13T08:38:14;8.40;;;5.35;;
41061;SDS011;26812;42.662;23.352;2023-07-13T08:40:39;8.70;;;5.28;;
41061;SDS011;26812;42.662;23.352;2023-07-13T08:43:06;7.78;;;5.45;;
41061;SDS011;26812;42.662;23.352;2023-07-13T08:48:24;7.22;;;5.35;;
41061;SDS011;26812;42.662;23.352;2023-07-13T08:51:09;8.02;;;5.88;;
41061;SDS011;26812;42.662;23.352;2023-07-13T08:53:47;9.48;;;5.38;;
41061;SDS011;26812;42.662;23.352;2023-07-13T08:56:19;7.82;;;5.18;;
41061;SDS011;26812;42.662;23.352;2023-07-13T08:58:55;8.05;;;5.43;;
41061;SDS011;26812;42.662;23.352;2023-07-13T09:04:36;7.55;;;5.57;;
41061;SDS011;26812;42.662;23.352;2023-07-13T09:09:46;6.80;;;5.10;;
41061;SDS011;26812;42.662;23.352;2023-07-13T09:12:27;7.72;;;5.82;;
41061;SDS011;26812;42.662;23.352;2023-07-13T09:14:56;7.18;;;5.80;;
41061;SDS011;26812;42.662;23.352;2023-07-13T09:17:28;6.47;;;4.97;;
41061;SDS011;26812;42.662;23.352;2023-07-13T09:20:05;8.38;;;4.88;;
41061;SDS011;26812;42.662;23.352;2023-07-13T09:22:39;8.55;;;5.95;;
41061;SDS011;26812;42.662;23.352;2023-07-13T09:27:52;7.93;;;5.18;;
41061;SDS011;26812;42.662;23.352;2023-07-13T09:30:28;10.88;;;6.22;;
41061;SDS011;26812;42.662;23.352;2023-07-13T09:32:58;8.52;;;6.15;;
41061;SDS011;26812;42.662;23.352;2023-07-13T09:35:28;8.05;;;5.85;;
41061;SDS011;26812;42.662;23.352;2023-07-13T09:37:58;7.32;;;4.80;;
41061;SDS011;26812;42.662;23.352;2023-07-13T09:40:30;8.55;;;5.72;;
41061;SDS011;26812;42.662;23.352;2023-07-13T09:45:34;6.70;;;5.88;;
41061;SDS011;26812;42.662;23.352;2023-07-13T09:48:05;8.02;;;5.55;;
41061;SDS011;26812;42.662;23.352;2023-07-13T09:50:38;9.75;;;5.90;;
41061;SDS011;26812;42.662;23.352;2023-07-13T09:53:11;9.18;;;5.43;;
41061;SDS011;26812;42.662;23.352;2023-07-13T09:55:38;8.35;;;5.85;;
41061;SDS011;26812;42.662;23.352;2023-07-13T10:00:53;9.77;;;5.88;;
41061;SDS011;26812;42.662;23.352;2023-07-13T10:03:31;7.63;;;5.13;;
41061;SDS011;26812;42.662;23.352;2023-07-13T10:06:13;5.55;;;4.57;;
41061;SDS011;26812;42.662;23.352;2023-07-13T10:08:43;7.07;;;5.10;;
41061;SDS011;26812;42.662;23.352;2023-07-13T10:13:42;6.40;;;5.22;;
41061;SDS011;26812;42.662;23.352;2023-07-13T10:16:10;6.65;;;5.28;;
41061;SDS011;26812;42.662;23.352;2023-07-13T10:18:40;7.38;;;5.47;;
41061;SDS011;26812;42.662;23.352;2023-07-13T10:21:26;6.05;;;5.40;;
41061;SDS011;26812;42.662;23.352;2023-07-13T10:24:13;9.73;;;5.57;;
41061;SDS011;26812;42.662;23.352;2023-07-13T10:26:59;6.82;;;5.72;;
41061;SDS011;26812;42.662;23.352;2023-07-13T10:32:40;7.53;;;5.03;;
41061;SDS011;26812;42.662;23.352;2023-07-13T10:35:05;8.88;;;4.85;;
41061;SDS011;26812;42.662;23.352;2023-07-13T10:40:33;9.18;;;5.55;;
41061;SDS011;26812;42.662;23.352;2023-07-13T10:43:10;7.30;;;4.85;;
41061;SDS011;26812;42.662;23.352;2023-07-13T10:45:46;4.97;;;4.53;;
41061;SDS011;26812;42.662;23.352;2023-07-13T10:48:55;5.32;;;3.78;;
41061;SDS011;26812;42.662;23.352;2023-07-13T10:51:40;6.30;;;3.03;;
41061;SDS011;26812;42.662;23.352;2023-07-13T10:54:17;5.00;;;3.05;;
41061;SDS011;26812;42.662;23.352;2023-07-13T10:56:49;4.60;;;2.92;;
41061;SDS011;26812;42.662;23.352;2023-07-13T10:59:36;4.93;;;3.10;;
41061;SDS011;26812;42.662;23.352;2023-07-13T11:02:36;3.33;;;2.80;;
41061;SDS011;26812;42.662;23.352;2023-07-13T11:08:34;4.07;;;2.60;;
41061;SDS011;26812;42.662;23.352;2023-07-13T11:11:37;6.70;;;3.22;;
41061;SDS011;26812;42.662;23.352;2023-07-13T11:14:42;5.30;;;2.45;;
41061;SDS011;26812;42.662;23.352;2023-07-13T11:23:06;5.07;;;3.13;;
41061;SDS011;26812;42.662;23.352;2023-07-13T11:25:44;4.88;;;2.88;;
41061;SDS011;26812;42.662;23.352;2023-07-13T11:28:25;7.13;;;3.30;;
41061;SDS011;26812;42.662;23.352;2023-07-13T11:36:29;3.58;;;2.72;;
41061;SDS011;26812;42.662;23.352;2023-07-13T11:39:10;5.88;;;2.97;;
41061;SDS011;26812;42.662;23.352;2023-07-13T11:41:44;4.32;;;2.90;;
41061;SDS011;26812;42.662;23.352;2023-07-13T11:44:32;6.45;;;3.38;;
41061;SDS011;26812;42.662;23.352;2023-07-13T11:47:10;11.80;;;3.83;;
41061;SDS011;26812;42.662;23.352;2023-07-13T11:49:47;4.80;;;3.10;;
41061;SDS011;26812;42.662;23.352;2023-07-13T11:55:23;4.97;;;3.35;;
41061;SDS011;26812;42.662;23.352;2023-07-13T11:58:14;3.97;;;2.90;;
41061;SDS011;26812;42.662;23.352;2023-07-13T12:00:45;6.25;;;3.17;;
41061;SDS011;26812;42.662;23.352;2023-07-13T12:03:12;4.03;;;2.75;;
41061;SDS011;26812;42.662;23.352;2023-07-13T12:05:57;4.22;;;2.80;;
41061;SDS011;26812;42.662;23.352;2023-07-13T12:11:57;6.10;;;3.22;;
41061;SDS011;26812;42.662;23.352;2023-07-13T12:14:29;5.65;;;3.15;;
41061;SDS011;26812;42.662;23.352;2023-07-13T12:20:21;5.00;;;3.35;;
41061;SDS011;26812;42.662;23.352;2023-07-13T12:23:25;8.20;;;3.08;;
41061;SDS011;26812;42.662;23.352;2023-07-13T12:26:01;6.97;;;3.20;;
41061;SDS011;26812;42.662;23.352;2023-07-13T12:28:35;5.15;;;2.92;;
41061;SDS011;26812;42.662;23.352;2023-07-13T12:31:04;6.13;;;2.75;;
41061;SDS011;26812;42.662;23.352;2023-07-13T12:33:31;4.38;;;2.38;;
41061;SDS011;26812;42.662;23.352;2023-07-13T12:36:02;5.32;;;2.65;;
41061;SDS011;26812;42.662;23.352;2023-07-13T12:38:31;4.03;;;2.40;;
41061;SDS011;26812;42.662;23.352;2023-07-13T12:40:57;3.65;;;2.60;;
41061;SDS011;26812;42.662;23.352;2023-07-13T12:43:23;6.50;;;3.42;;
41061;SDS011;26812;42.662;23.352;2023-07-13T12:45:55;4.18;;;3.38;;
41061;SDS011;26812;42.662;23.352;2023-07-13T12:48:28;4.13;;;3.08;;
41061;SDS011;26812;42.662;23.352;2023-07-13T12:50:54;6.53;;;2.90;;
41061;SDS011;26812;42.662;23.352;2023-07-13T12:53:22;4.28;;;2.85;;
41061;SDS011;26812;42.662;23.352;2023-07-13T12:55:53;4.53;;;3.38;;
41061;SDS011;26812;42.662;23.352;2023-07-13T12:58:27;4.47;;;3.97;;
41061;SDS011;26812;42.662;23.352;2023-07-13T13:00:57;7.18;;;4.07;;
41061;SDS011;26812;42.662;23.352;2023-07-13T13:06:02;6.90;;;4.20;;
41061;SDS011;26812;42.662;23.352;2023-07-13T13:08:52;5.72;;;3.72;;
41061;SDS011;26812;42.662;23.352;2023-07-13T13:11:19;6.05;;;3.92;;
41061;SDS011;26812;42.662;23.352;2023-07-13T13:13:46;7.25;;;3.92;;
41061;SDS011;26812;42.662;23.352;2023-07-13T13:16:31;6.90;;;3.95;;
41061;SDS011;26812;42.662;23.352;2023-07-13T13:19:00;9.60;;;4.60;;
41061;SDS011;26812;42.662;23.352;2023-07-13T13:21:49;4.82;;;3.90;;
41061;SDS011;26812;42.662;23.352;2023-07-13T13:24:19;5.75;;;4.07;;
41061;SDS011;26812;42.662;23.352;2023-07-13T13:26:46;6.07;;;3.95;;
41061;SDS011;26812;42.662;23.352;2023-07-13T13:29:17;6.55;;;3.97;;
41061;SDS011;26812;42.662;23.352;2023-07-13T13:31:45;4.82;;;3.90;;
41061;SDS011;26812;42.662;23.352;2023-07-13T13:34:11;9.13;;;4.20;;
41061;SDS011;26812;42.662;23.352;2023-07-13T13:36:38;7.03;;;4.10;;
41061;SDS011;26812;42.662;23.352;2023-07-13T13:39:07;6.30;;;4.07;;
41061;SDS011;26812;42.662;23.352;2023-07-13T13:41:43;5.63;;;3.85;;
41061;SDS011;26812;42.662;23.352;2023-07-13T13:44:09;8.52;;;4.07;;
41061;SDS011;26812;42.662;23.352;2023-07-13T13:46:35;6.38;;;3.65;;
41061;SDS011;26812;42.662;23.352;2023-07-13T13:49:01;6.43;;;3.80;;
41061;SDS011;26812;42.662;23.352;2023-07-13T13:51:26;4.97;;;3.55;;
41061;SDS011;26812;42.662;23.352;2023-07-13T13:53:52;5.28;;;3.50;;
41061;SDS011;26812;42.662;23.352;2023-07-13T13:56:18;5.45;;;3.60;;
41061;SDS011;26812;42.662;23.352;2023-07-13T13:58:44;8.40;;;3.83;;
41061;SDS011;26812;42.662;23.352;2023-07-13T14:01:18;5.35;;;3.30;;
41061;SDS011;26812;42.662;23.352;2023-07-13T14:03:45;5.27;;;3.73;;
41061;SDS011;26812;42.662;23.352;2023-07-13T14:06:13;7.30;;;4.35;;
41061;SDS011;26812;42.662;23.352;2023-07-13T14:08:40;4.63;;;3.17;;
41061;SDS011;26812;42.662;23.352;2023-07-13T14:11:07;5.90;;;3.47;;
41061;SDS011;26812;42.662;23.352;2023-07-13T14:13:38;7.03;;;3.50;;
41061;SDS011;26812;42.662;23.352;2023-07-13T14:16:11;6.18;;;3.22;;
41061;SDS011;26812;42.662;23.352;2023-07-13T14:18:40;6.13;;;4.07;;
41061;SDS011;26812;42.662;23.352;2023-07-13T14:21:11;5.13;;;3.92;;
41061;SDS011;26812;42.662;23.352;2023-07-13T14:23:40;4.70;;;3.38;;
41061;SDS011;26812;42.662;23.352;2023-07-13T14:26:13;3.92;;;3.17;;
41061;SDS011;26812;42.662;23.352;2023-07-13T14:28:44;5.37;;;2.60;;
41061;SDS011;26812;42.662;23.352;2023-07-13T14:31:11;4.97;;;3.75;;
41061;SDS011;26812;42.662;23.352;2023-07-13T14:33:37;3.88;;;2.67;;
41061;SDS011;26812;42.662;23.352;2023-07-13T14:36:05;6.05;;;3.08;;
41061;SDS011;26812;42.662;23.352;2023-07-13T14:38:54;3.38;;;3.08;;
41061;SDS011;26812;42.662;23.352;2023-07-13T14:41:21;5.80;;;3.08;;
41061;SDS011;26812;42.662;23.352;2023-07-13T14:43:47;6.80;;;3.13;;
41061;SDS011;26812;42.662;23.352;2023-07-13T14:46:30;8.60;;;3.08;;
41061;SDS011;26812;42.662;23.352;2023-07-13T14:49:03;6.40;;;2.78;;
41061;SDS011;26812;42.662;23.352;2023-07-13T14:51:31;8.02;;;3.13;;
41061;SDS011;26812;42.662;23.352;2023-07-13T14:54:02;5.60;;;3.53;;
41061;SDS011;26812;42.662;23.352;2023-07-13T14:56:28;5.05;;;3.22;;
41061;SDS011;26812;42.662;23.352;2023-07-13T14:58:53;6.07;;;2.90;;
41061;SDS011;26812;42.662;23.352;2023-07-13T15:01:19;6.22;;;2.65;;
41061;SDS011;26812;42.662;23.352;2023-07-13T15:03:46;6.45;;;3.42;;
41061;SDS011;26812;42.662;23.352;2023-07-13T15:06:14;4.97;;;3.20;;
41061;SDS011;26812;42.662;23.352;2023-07-13T15:08:39;7.70;;;3.08;;
41061;SDS011;26812;42.662;23.352;2023-07-13T15:11:08;8.68;;;3.97;;
41061;SDS011;26812;42.662;23.352;2023-07-13T15:13:37;5.30;;;2.97;;
41061;SDS011;26812;42.662;23.352;2023-07-13T15:18:47;7.22;;;3.22;;
41061;SDS011;26812;42.662;23.352;2023-07-13T15:21:14;5.00;;;2.63;;
41061;SDS011;26812;42.662;23.352;2023-07-13T15:23:45;5.18;;;3.17;;
41061;SDS011;26812;42.662;23.352;2023-07-13T15:26:14;5.70;;;3.08;;
41061;SDS011;26812;42.662;23.352;2023-07-13T15:28:42;4.90;;;2.95;;
41061;SDS011;26812;42.662;23.352;2023-07-13T15:31:17;5.05;;;2.78;;
41061;SDS011;26812;42.662;23.352;2023-07-13T15:33:44;8.20;;;3.38;;
41061;SDS011;26812;42.662;23.352;2023-07-13T15:36:10;5.75;;;3.78;;
41061;SDS011;26812;42.662;23.352;2023-07-13T15:38:35;3.88;;;2.78;;
41061;SDS011;26812;42.662;23.352;2023-07-13T15:41:16;3.50;;;2.75;;